createdAt,value
2022-12-17T00:02:41.889Z,78.57
2022-12-17T00:05:27.558Z,78.33
2022-12-17T00:08:17.617Z,78.24
2022-12-17T00:11:03.038Z,78.45
2022-12-17T00:13:48.546Z,78.94
2022-12-17T00:16:34.930Z,79.04
2022-12-17T00:19:20.214Z,78.71
2022-12-17T00:22:05.367Z,78.71
2022-12-17T00:24:50.255Z,79.00
2022-12-17T00:27:35.226Z,78.69
2022-12-17T00:30:20.707Z,78.80
2022-12-17T00:33:06.111Z,78.62
2022-12-17T00:35:51.217Z,78.50
2022-12-17T00:38:37.637Z,78.93
2022-12-17T00:41:23.032Z,78.69
2022-12-17T00:44:08.332Z,79.05
2022-12-17T00:46:53.524Z,78.56
2022-12-17T00:49:38.656Z,78.72
2022-12-17T00:52:24.369Z,78.65
2022-12-17T00:55:09.799Z,78.63
2022-12-17T00:57:55.258Z,78.68
2022-12-17T01:00:42.102Z,78.54
2022-12-17T01:03:30.366Z,77.57
2022-12-17T01:06:19.567Z,78.11
2022-12-17T01:09:05.431Z,78.27
2022-12-17T01:11:50.615Z,78.19
2022-12-17T01:14:37.346Z,78.27
2022-12-17T01:17:39.167Z,78.45
2022-12-17T01:20:25.118Z,78.05
2022-12-17T01:23:10.711Z,77.83
2022-12-17T01:25:56.382Z,77.99
2022-12-17T01:28:42.731Z,77.71
2022-12-17T01:31:34.667Z,77.75
2022-12-17T01:34:20.837Z,77.88
2022-12-17T01:37:07.673Z,78.51
2022-12-17T01:39:53.003Z,78.27
2022-12-17T01:42:38.117Z,78.11
2022-12-17T01:45:24.263Z,78.62
2022-12-17T01:48:13.630Z,78.87
2022-12-17T01:51:08.497Z,78.54
2022-12-17T01:54:00.011Z,78.96
2022-12-17T01:56:45.295Z,78.44
2022-12-17T01:59:31.492Z,78.23
2022-12-17T02:02:17.086Z,78.73
2022-12-17T02:05:02.681Z,78.99
2022-12-17T02:08:00.171Z,78.56
2022-12-17T02:10:59.646Z,78.53
2022-12-17T02:13:50.842Z,78.88
2022-12-17T02:16:43.948Z,79.01
2022-12-17T02:20:00.363Z,78.56
2022-12-17T02:23:23.990Z,78.58
2022-12-17T02:26:19.451Z,78.51
2022-12-17T02:29:08.351Z,78.15
2022-12-17T02:31:59.112Z,78.42
2022-12-17T02:34:44.523Z,78.00
2022-12-17T02:37:29.508Z,78.29
2022-12-17T02:40:14.871Z,78.55
2022-12-17T02:43:01.609Z,78.15
2022-12-17T02:45:46.813Z,78.70
2022-12-17T02:48:32.039Z,78.31
2022-12-17T02:51:17.726Z,77.93
2022-12-17T02:54:04.643Z,78.56
2022-12-17T02:56:49.920Z,77.87
2022-12-17T02:59:34.938Z,77.76
2022-12-17T03:02:20.520Z,78.58
2022-12-17T03:05:27.593Z,78.21
2022-12-17T03:08:11.278Z,78.46
2022-12-17T03:10:56.626Z,78.21
2022-12-17T03:13:46.488Z,78.39
2022-12-17T03:16:37.407Z,78.59
2022-12-17T03:19:23.397Z,78.39
2022-12-17T03:22:08.511Z,78.45
2022-12-17T03:24:53.807Z,78.33
2022-12-17T03:27:38.893Z,78.88
2022-12-17T03:30:24.712Z,78.22
2022-12-17T03:33:10.147Z,78.40
2022-12-17T03:35:55.447Z,78.81
2022-12-17T03:38:40.904Z,78.35
2022-12-17T03:41:26.382Z,78.52
2022-12-17T03:44:11.577Z,78.43
2022-12-17T03:46:56.478Z,78.30
2022-12-17T03:49:41.788Z,78.26
2022-12-17T03:52:27.190Z,78.16
2022-12-17T03:55:12.394Z,78.46
2022-12-17T03:58:02.026Z,78.87
2022-12-17T04:00:46.896Z,78.26
2022-12-17T04:03:32.243Z,78.46
2022-12-17T04:06:17.238Z,79.02
2022-12-17T04:09:02.409Z,78.67
2022-12-17T04:11:47.653Z,78.85
2022-12-17T04:14:32.752Z,78.79
2022-12-17T04:17:18.086Z,78.80
2022-12-17T04:20:03.051Z,78.91
2022-12-17T04:22:48.383Z,79.01
2022-12-17T04:25:33.562Z,78.70
2022-12-17T04:28:19.058Z,78.63
2022-12-17T04:31:04.170Z,79.03
2022-12-17T04:33:49.594Z,78.55
2022-12-17T04:36:34.649Z,78.52
2022-12-17T04:39:20.067Z,78.39
2022-12-17T04:42:05.368Z,78.76
2022-12-17T04:44:51.490Z,78.55
2022-12-17T04:47:36.507Z,78.17
2022-12-17T04:50:21.962Z,78.76
2022-12-17T04:53:07.165Z,78.68
2022-12-17T04:55:52.386Z,78.99
2022-12-17T04:58:37.894Z,78.60
2022-12-17T05:01:23.085Z,78.47
2022-12-17T05:04:08.102Z,78.35
2022-12-17T05:06:53.498Z,78.44
2022-12-17T05:09:38.635Z,78.81
2022-12-17T05:12:24.052Z,78.71
2022-12-17T05:15:09.164Z,78.57
2022-12-17T05:17:55.471Z,79.17
2022-12-17T05:20:40.540Z,78.72
2022-12-17T05:23:27.331Z,79.19
2022-12-17T05:26:38.950Z,78.54
2022-12-17T05:29:24.611Z,78.40
2022-12-17T05:32:09.858Z,79.09
2022-12-17T05:34:55.395Z,78.74
2022-12-17T05:37:42.494Z,78.66
2022-12-17T05:40:28.371Z,78.36
2022-12-17T05:43:19.463Z,78.49
2022-12-17T05:46:05.227Z,79.22
2022-12-17T05:48:53.231Z,79.39
2022-12-17T05:51:39.361Z,79.23
2022-12-17T05:54:25.580Z,79.18
2022-12-17T05:57:11.602Z,79.89
2022-12-17T05:59:56.980Z,79.67
2022-12-17T06:02:42.555Z,79.44
2022-12-17T06:05:27.783Z,79.49
2022-12-17T06:08:20.339Z,79.24
2022-12-17T06:11:05.726Z,78.96
2022-12-17T06:13:50.786Z,79.15
2022-12-17T06:16:36.514Z,79.47
2022-12-17T06:19:21.935Z,78.96
2022-12-17T06:22:12.038Z,79.43
2022-12-17T06:25:01.989Z,79.16
2022-12-17T06:27:50.412Z,78.89
2022-12-17T06:30:35.951Z,79.08
2022-12-17T06:33:29.648Z,79.98
2022-12-17T06:36:21.988Z,79.73
2022-12-17T06:39:08.263Z,79.29
2022-12-17T06:42:00.485Z,79.44
2022-12-17T06:44:51.959Z,79.33
2022-12-17T06:47:38.461Z,79.08
2022-12-17T06:50:27.005Z,78.82
2022-12-17T06:53:25.942Z,78.89
2022-12-17T06:56:11.553Z,79.72
2022-12-17T06:58:56.934Z,79.65
2022-12-17T07:01:42.722Z,79.30
2022-12-17T07:04:31.498Z,79.40
2022-12-17T07:07:16.922Z,79.12
2022-12-17T07:10:02.386Z,78.94
2022-12-17T07:12:47.907Z,79.64
2022-12-17T07:15:37.611Z,79.43
2022-12-17T07:18:23.142Z,79.65
2022-12-17T07:21:12.533Z,79.59
2022-12-17T07:23:57.836Z,79.32
2022-12-17T07:26:43.086Z,79.71
2022-12-17T07:29:28.585Z,79.26
2022-12-17T07:32:13.498Z,80.11
2022-12-17T07:35:01.573Z,79.24
2022-12-17T07:37:46.939Z,79.46
2022-12-17T07:40:32.124Z,79.99
2022-12-17T07:43:17.232Z,79.85
2022-12-17T07:46:02.469Z,80.16
2022-12-17T07:48:47.911Z,79.28
2022-12-17T07:51:33.205Z,79.85
2022-12-17T07:54:20.985Z,79.73
2022-12-17T07:57:06.054Z,80.01
2022-12-17T07:59:51.399Z,80.03
2022-12-17T08:02:36.790Z,79.93
2022-12-17T08:05:22.327Z,79.82
2022-12-17T08:08:07.401Z,79.68
2022-12-17T08:10:52.746Z,79.83
2022-12-17T08:13:38.928Z,80.20
2022-12-17T08:16:24.955Z,79.81
2022-12-17T08:19:10.336Z,80.58
2022-12-17T08:21:55.282Z,79.72
2022-12-17T08:24:43.225Z,80.09
2022-12-17T08:27:29.032Z,80.26
2022-12-17T08:30:14.576Z,80.41
2022-12-17T08:32:59.572Z,80.61
2022-12-17T08:35:45.237Z,80.26
2022-12-17T08:38:30.834Z,80.65
2022-12-17T08:41:19.326Z,80.00
2022-12-17T08:44:04.535Z,79.90
2022-12-17T08:46:50.036Z,80.04
2022-12-17T08:49:34.855Z,80.04
2022-12-17T08:52:20.516Z,80.21
2022-12-17T08:55:05.966Z,80.92
2022-12-17T08:57:50.910Z,80.26
2022-12-17T09:00:36.527Z,80.53
2022-12-17T09:03:22.321Z,80.35
2022-12-17T09:06:07.720Z,80.30
2022-12-17T09:08:52.762Z,80.10
2022-12-17T09:11:38.314Z,79.86
2022-12-17T09:14:25.654Z,80.19
2022-12-17T09:17:12.068Z,80.11
2022-12-17T09:19:57.747Z,80.43
2022-12-17T09:22:43.227Z,80.16
2022-12-17T09:25:31.159Z,80.34
2022-12-17T09:28:20.273Z,80.18
2022-12-17T09:31:06.374Z,80.31
2022-12-17T09:33:55.110Z,80.50
2022-12-17T09:36:50.893Z,79.88
2022-12-17T09:39:36.407Z,79.97
2022-12-17T09:43:17.376Z,80.00
2022-12-17T09:46:29.331Z,80.29
2022-12-17T09:49:22.614Z,80.63
2022-12-17T09:52:07.939Z,80.03
2022-12-17T09:55:02.247Z,80.28
2022-12-17T09:57:54.593Z,80.42
2022-12-17T10:00:45.527Z,80.64
2022-12-17T10:03:39.399Z,80.87
2022-12-17T10:06:42.799Z,79.99
2022-12-17T10:09:36.847Z,80.43
2022-12-17T10:12:32.304Z,80.13
2022-12-17T10:15:17.498Z,80.05
2022-12-17T10:18:03.265Z,80.65
2022-12-17T10:20:57.732Z,80.95
2022-12-17T10:23:48.295Z,80.46
2022-12-17T10:26:42.794Z,80.64
2022-12-17T10:29:47.329Z,80.27
2022-12-17T10:32:33.842Z,80.93
2022-12-17T10:35:37.476Z,80.98
2022-12-17T10:38:42.515Z,80.35
2022-12-17T10:41:48.400Z,81.07
2022-12-17T10:44:45.213Z,80.90
2022-12-17T10:47:32.906Z,80.53
2022-12-17T10:50:20.912Z,80.83
2022-12-17T10:53:07.962Z,80.44
2022-12-17T10:55:54.872Z,80.46
2022-12-17T10:58:43.636Z,80.48
2022-12-17T11:01:36.682Z,80.67
2022-12-17T11:04:21.910Z,80.58
2022-12-17T11:07:09.798Z,80.87
2022-12-17T11:10:09.172Z,80.44
2022-12-17T11:12:57.749Z,80.57
2022-12-17T11:16:20.201Z,80.39
2022-12-17T11:19:17.809Z,80.24
2022-12-17T11:22:07.795Z,80.97
2022-12-17T11:25:04.800Z,80.61
2022-12-17T11:28:01.506Z,80.64
2022-12-17T11:30:47.609Z,80.70
2022-12-17T11:33:40.456Z,81.09
2022-12-17T11:36:48.294Z,80.94
2022-12-17T11:39:44.034Z,80.35
2022-12-17T11:42:52.257Z,81.11
2022-12-17T11:45:54.274Z,80.81
2022-12-17T11:48:39.767Z,80.45
2022-12-17T11:51:41.673Z,80.85
2022-12-17T11:54:50.193Z,80.53
2022-12-17T11:58:09.549Z,80.74
2022-12-17T12:01:17.844Z,80.92
2022-12-17T12:04:19.215Z,80.62
2022-12-17T12:07:25.650Z,80.51
2022-12-17T12:10:28.517Z,80.66
2022-12-17T12:13:13.942Z,80.53
2022-12-17T12:16:14.984Z,80.65
2022-12-17T12:19:24.820Z,80.83
2022-12-17T12:22:30.483Z,80.73
2022-12-17T12:25:38.828Z,81.20
2022-12-17T12:28:38.613Z,80.88
2022-12-17T12:31:52.995Z,81.13
2022-12-17T12:34:45.908Z,80.87
2022-12-17T12:37:34.013Z,80.75
2022-12-17T12:40:39.586Z,80.50
2022-12-17T12:43:36.528Z,80.95
2022-12-17T12:46:33.094Z,80.41
2022-12-17T12:49:48.178Z,80.59
2022-12-17T12:52:39.791Z,80.55
2022-12-17T12:55:25.516Z,80.72
2022-12-17T12:58:20.648Z,80.84
2022-12-17T13:01:05.666Z,80.88
2022-12-17T13:03:54.682Z,80.59
2022-12-17T13:06:42.167Z,80.46
2022-12-17T13:09:18.183Z,80.74
2022-12-17T13:11:59.839Z,80.78
2022-12-17T13:14:31.946Z,80.72
2022-12-17T13:17:05.928Z,80.50
2022-12-17T13:19:41.613Z,80.68
2022-12-17T13:22:23.651Z,80.16
2022-12-17T13:24:53.654Z,80.68
2022-12-17T13:27:35.243Z,80.81
2022-12-17T13:30:37.847Z,80.33
2022-12-17T13:33:41.814Z,80.33
2022-12-17T13:36:29.926Z,81.09
2022-12-17T13:39:24.416Z,80.77
2022-12-17T13:41:58.190Z,80.54
2022-12-17T13:44:36.233Z,80.35
2022-12-17T13:47:04.029Z,80.38
2022-12-17T13:49:31.965Z,80.46
2022-12-17T13:52:17.114Z,80.26
2022-12-17T13:54:43.967Z,80.59
2022-12-17T13:57:23.162Z,80.70
2022-12-17T13:59:54.913Z,80.53
2022-12-17T14:02:32.817Z,80.26
2022-12-17T14:05:07.408Z,80.39
2022-12-17T14:07:39.090Z,80.26
2022-12-17T14:10:16.379Z,80.38
2022-12-17T14:12:46.971Z,80.52
2022-12-17T14:15:25.740Z,80.56
2022-12-17T14:17:54.175Z,80.48
2022-12-17T14:20:25.771Z,80.32
2022-12-17T14:23:00.659Z,80.51
2022-12-17T14:25:31.130Z,80.45
2022-12-17T14:28:03.875Z,80.30
2022-12-17T14:30:33.287Z,80.16
2022-12-17T14:33:00.081Z,80.13
2022-12-17T14:35:29.897Z,80.35
2022-12-17T14:37:57.385Z,80.21
2022-12-17T14:40:25.379Z,79.81
2022-12-17T14:42:57.646Z,79.97
2022-12-17T14:45:27.102Z,79.94
2022-12-17T14:47:56.942Z,79.79
2022-12-17T14:50:33.871Z,79.85
2022-12-17T14:53:03.434Z,79.64
2022-12-17T14:55:31.977Z,79.72
2022-12-17T14:58:27.829Z,80.16
2022-12-17T15:01:11.196Z,79.62
2022-12-17T15:03:41.086Z,80.15
2022-12-17T15:06:10.438Z,79.95
2022-12-17T15:08:41.657Z,80.05
2022-12-17T15:11:10.399Z,79.69
2022-12-17T15:13:37.074Z,79.97
2022-12-17T15:16:03.977Z,79.56
2022-12-17T15:18:30.659Z,79.75
2022-12-17T15:20:57.482Z,79.24
2022-12-17T15:23:25.261Z,79.65
2022-12-17T15:25:54.357Z,79.67
2022-12-17T15:28:22.187Z,79.83
2022-12-17T15:30:49.873Z,79.81
2022-12-17T15:33:16.986Z,79.28
2022-12-17T15:35:43.807Z,79.63
2022-12-17T15:38:11.750Z,79.56
2022-12-17T15:40:39.102Z,79.54
2022-12-17T15:43:13.066Z,79.74
2022-12-17T15:45:47.628Z,79.67
2022-12-17T15:48:25.488Z,79.56
2022-12-17T15:50:52.083Z,79.20
2022-12-17T15:53:25.342Z,79.60
2022-12-17T15:56:00.298Z,79.65
2022-12-17T15:58:27.382Z,79.56
2022-12-17T16:00:54.056Z,79.18
2022-12-17T16:03:21.902Z,79.32
2022-12-17T16:05:48.771Z,79.08
2022-12-17T16:08:15.726Z,79.07
2022-12-17T16:10:42.442Z,79.02
2022-12-17T16:13:09.045Z,79.28
2022-12-17T16:15:36.285Z,79.58
2022-12-17T16:18:03.217Z,79.19
2022-12-17T16:20:30.038Z,78.83
2022-12-17T16:22:56.771Z,79.45
2022-12-17T16:25:23.662Z,79.51
2022-12-17T16:27:50.279Z,79.21
2022-12-17T16:30:17.115Z,79.12
2022-12-17T16:32:44.685Z,79.23
2022-12-17T16:35:11.909Z,79.00
2022-12-17T16:37:38.566Z,79.32
2022-12-17T16:40:05.921Z,79.04
2022-12-17T16:42:32.615Z,79.21
2022-12-17T16:44:59.495Z,79.35
2022-12-17T16:47:26.178Z,79.33
2022-12-17T16:49:52.855Z,79.45
2022-12-17T16:52:19.593Z,79.31
2022-12-17T16:54:46.270Z,79.25
2022-12-17T16:57:15.978Z,79.31
2022-12-17T16:59:42.979Z,79.66
2022-12-17T17:02:14.035Z,79.41
2022-12-17T17:04:40.937Z,79.71
2022-12-17T17:07:10.493Z,79.57
2022-12-17T17:09:37.944Z,79.68
2022-12-17T17:12:05.348Z,79.19
2022-12-17T17:14:32.023Z,79.19
2022-12-17T17:17:05.616Z,79.54
2022-12-17T17:19:32.525Z,78.88
2022-12-17T17:21:59.319Z,79.06
2022-12-17T17:24:35.786Z,79.50
2022-12-17T17:27:02.771Z,79.93
2022-12-17T17:29:29.679Z,79.69
2022-12-17T17:32:13.413Z,79.24
2022-12-17T17:34:40.880Z,79.43
2022-12-17T17:37:07.671Z,79.59
2022-12-17T17:39:34.701Z,79.73
2022-12-17T17:42:01.802Z,79.87
2022-12-17T17:44:32.283Z,79.21
2022-12-17T17:46:59.151Z,79.52
2022-12-17T17:49:31.915Z,79.66
2022-12-17T17:52:14.129Z,79.68
2022-12-17T17:54:41.067Z,79.64
2022-12-17T17:57:09.084Z,79.19
2022-12-17T17:59:35.985Z,79.31
2022-12-17T18:02:09.733Z,79.69
2022-12-17T18:04:36.564Z,79.23
2022-12-17T18:09:54.534Z,79.19
2022-12-17T18:12:40.438Z,79.58
2022-12-17T18:15:16.849Z,79.47
2022-12-17T18:17:53.956Z,79.36
2022-12-17T18:20:22.028Z,79.44
2022-12-17T18:22:53.566Z,79.47
2022-12-17T18:25:20.984Z,79.76
2022-12-17T18:27:47.912Z,79.35
2022-12-17T18:30:16.574Z,79.19
2022-12-17T18:32:43.335Z,79.47
2022-12-17T18:35:10.181Z,79.42
2022-12-17T18:37:40.318Z,79.04
2022-12-17T18:40:08.358Z,79.35
2022-12-17T18:43:14.251Z,79.69
2022-12-17T18:45:42.113Z,79.46
2022-12-17T18:48:13.667Z,79.21
2022-12-17T18:50:42.717Z,79.31
2022-12-17T18:53:09.350Z,79.72
2022-12-17T18:55:40.685Z,79.49
2022-12-17T18:58:09.155Z,79.14
2022-12-17T19:00:38.092Z,79.76
2022-12-17T19:03:06.041Z,79.97
2022-12-17T19:05:33.077Z,79.50
2022-12-17T19:07:59.777Z,79.24
2022-12-17T19:10:26.452Z,79.68
2022-12-17T19:12:53.119Z,79.53
2022-12-17T19:15:19.786Z,79.90
2022-12-17T19:17:50.852Z,79.72
2022-12-17T19:20:17.902Z,79.22
2022-12-17T19:22:44.506Z,79.51
2022-12-17T19:25:11.371Z,79.66
2022-12-17T19:27:38.059Z,79.98
2022-12-17T19:30:05.399Z,79.73
2022-12-17T19:32:32.250Z,79.89
2022-12-17T19:34:58.908Z,79.93
2022-12-17T19:37:25.567Z,79.43
2022-12-17T19:39:52.161Z,80.03
2022-12-17T19:42:25.242Z,79.95
2022-12-17T19:44:54.543Z,80.02
2022-12-17T19:47:23.633Z,79.44
2022-12-17T19:49:50.399Z,80.06
2022-12-17T19:52:17.107Z,80.04
2022-12-17T19:54:43.767Z,80.25
2022-12-17T19:57:10.508Z,80.65
2022-12-17T19:59:38.293Z,80.16
2022-12-17T20:02:07.537Z,80.21
2022-12-17T20:04:34.374Z,80.40
2022-12-17T20:07:01.173Z,80.46
2022-12-17T20:09:27.891Z,80.11
2022-12-17T20:11:54.666Z,80.08
2022-12-17T20:14:26.458Z,80.35
2022-12-17T20:16:59.621Z,80.14
2022-12-17T20:19:31.165Z,80.03
2022-12-17T20:22:03.014Z,80.38
2022-12-17T20:24:32.010Z,80.28
2022-12-17T20:26:59.591Z,80.34
2022-12-17T20:29:26.290Z,80.06
2022-12-17T20:31:57.303Z,80.59
2022-12-17T20:34:25.015Z,80.41
2022-12-17T20:36:52.354Z,80.40
2022-12-17T20:39:25.980Z,80.33
2022-12-17T20:41:58.372Z,80.54
2022-12-17T20:44:25.418Z,80.86
2022-12-17T20:46:52.335Z,80.68
2022-12-17T20:49:25.326Z,80.09
2022-12-17T20:51:52.021Z,80.65
2022-12-17T20:54:18.850Z,80.86
2022-12-17T20:56:45.720Z,80.61
2022-12-17T20:59:16.082Z,80.55
2022-12-17T21:01:45.092Z,80.90
2022-12-17T21:04:14.055Z,80.34
2022-12-17T21:06:45.998Z,81.04
2022-12-17T21:09:17.129Z,80.61
2022-12-17T21:11:44.011Z,80.93
2022-12-17T21:14:13.792Z,80.57
2022-12-17T21:16:41.442Z,80.65
2022-12-17T21:19:12.679Z,80.25
2022-12-17T21:21:39.838Z,80.56
2022-12-17T21:24:08.412Z,80.62
2022-12-17T21:26:37.606Z,81.02
2022-12-17T21:29:06.213Z,80.74
2022-12-17T21:31:34.221Z,80.97
2022-12-17T21:34:06.055Z,80.71
2022-12-17T21:36:34.127Z,80.66
2022-12-17T21:39:01.547Z,80.66
2022-12-17T21:41:38.482Z,81.31
2022-12-17T21:44:11.207Z,81.31
2022-12-17T21:46:38.621Z,81.34
2022-12-17T21:49:09.236Z,80.95
2022-12-17T21:51:36.415Z,81.19
2022-12-17T21:54:08.156Z,81.39
2022-12-17T21:56:38.743Z,81.16
2022-12-17T21:59:08.339Z,81.34
2022-12-17T22:01:35.057Z,81.29
2022-12-17T22:04:04.445Z,81.13
2022-12-17T22:06:36.062Z,81.35
2022-12-17T22:09:16.866Z,81.53
2022-12-17T22:12:17.870Z,81.39
2022-12-17T22:14:45.011Z,81.30
2022-12-17T22:17:11.705Z,81.14
2022-12-17T22:19:38.551Z,81.42
2022-12-17T22:22:08.628Z,81.45
2022-12-17T22:24:36.726Z,81.18
2022-12-17T22:27:04.253Z,81.50
2022-12-17T22:29:54.332Z,81.21
2022-12-17T22:32:39.831Z,81.22
2022-12-17T22:36:45.481Z,81.46
2022-12-17T22:39:51.478Z,81.48
2022-12-17T22:44:31.159Z,81.25
2022-12-17T22:44:44.078Z,81.30
2022-12-17T22:46:17.508Z,81.20
2022-12-17T22:48:44.922Z,81.41
2022-12-17T22:51:24.575Z,81.20
2022-12-17T22:54:04.894Z,81.18
2022-12-17T22:56:51.108Z,81.53
2022-12-17T22:59:19.858Z,81.42
2022-12-17T23:01:46.843Z,81.61
2022-12-17T23:04:15.916Z,81.51
2022-12-17T23:06:49.039Z,81.75
2022-12-17T23:09:19.619Z,81.48
2022-12-17T23:11:48.307Z,81.49
2022-12-17T23:14:21.271Z,82.03
2022-12-17T23:16:53.185Z,81.77
2022-12-17T23:19:23.236Z,81.45
2022-12-17T23:21:49.842Z,81.69
2022-12-17T23:24:25.188Z,81.53
2022-12-17T23:26:51.832Z,81.71
2022-12-17T23:29:19.773Z,81.80
2022-12-17T23:31:47.360Z,82.00
2022-12-17T23:34:14.327Z,81.38
2022-12-17T23:36:41.077Z,81.90
2022-12-17T23:39:07.811Z,81.86
2022-12-17T23:41:34.854Z,81.65
2022-12-17T23:44:01.573Z,81.75
2022-12-17T23:46:29.561Z,81.93
2022-12-17T23:48:58.874Z,82.03
2022-12-17T23:51:26.403Z,81.84
2022-12-17T23:53:53.295Z,81.99
2022-12-17T23:56:22.731Z,81.87
2022-12-17T23:58:57.262Z,82.22
